Weather at Cape May County Airport

Public forecast

Using degrees Fahrenheit for public forecast. Weather courtesy of forecast.io.

Current aviation weather report (METAR) for Cape May County Airport

Retrieved 2020/09/29 12:56 UTC (30 minutes ago):

KWWD 291256Z AUTO 18009KT 10SM FEW033 SCT041 OVC060 22/21 A2991 RMK AO2 SLP128 T02220211

Closest aviation forecast (TAF) to Cape May County Airport

Closest forecast is Millville Municipal Airport, 22.9 nm (42.4 km) NNW. Retrieved 2020/09/29 12:27 UTC (59 minutes ago):

TAF KMIV 291123Z 2912/3012 16006KT P6SM SCT015 BKN045 TEMPO 2912/2916 -SHRA OVC015 FM291600 18006KT P6SM -SHRA BKN025 OVC040 FM291900 14008KT P6SM -SHRA SCT025 BKN040 FM300100 15010G18KT 3SM SHRA BR OVC008 FM300500 28010G18KT 3SM +SHRA BR OVC008 FM300900 28006KT P6SM -SHRA BKN015 OVC040